sensor_id;sensor_type;location;lat;lon;timestamp;P1;durP1;ratioP1;P2;durP2;ratioP2
51558;SDS011;61650;48.882;2.092;2022-09-03T00:01:42;7.73;;;6.93;;
51558;SDS011;61650;48.882;2.092;2022-09-03T00:04:57;6.70;;;6.10;;
51558;SDS011;61650;48.882;2.092;2022-09-03T00:07:14;7.70;;;7.10;;
51558;SDS011;61650;48.882;2.092;2022-09-03T00:10:03;7.57;;;6.87;;
51558;SDS011;61650;48.882;2.092;2022-09-03T00:12:35;7.47;;;6.70;;
51558;SDS011;61650;48.882;2.092;2022-09-03T00:15:05;7.40;;;6.80;;
51558;SDS011;61650;48.882;2.092;2022-09-03T00:17:35;7.93;;;7.23;;
51558;SDS011;61650;48.882;2.092;2022-09-03T00:23:13;7.27;;;6.60;;
51558;SDS011;61650;48.882;2.092;2022-09-03T00:25:44;6.80;;;6.20;;
51558;SDS011;61650;48.882;2.092;2022-09-03T00:28:14;7.20;;;6.60;;
51558;SDS011;61650;48.882;2.092;2022-09-03T00:30:42;6.90;;;6.30;;
51558;SDS011;61650;48.882;2.092;2022-09-03T00:33:17;7.60;;;6.97;;
51558;SDS011;61650;48.882;2.092;2022-09-03T00:35:50;6.70;;;6.20;;
51558;SDS011;61650;48.882;2.092;2022-09-03T00:38:29;7.20;;;6.60;;
51558;SDS011;61650;48.882;2.092;2022-09-03T00:46:44;7.43;;;6.53;;
51558;SDS011;61650;48.882;2.092;2022-09-03T01:00:04;7.63;;;6.90;;
51558;SDS011;61650;48.882;2.092;2022-09-03T01:05:15;7.37;;;6.77;;
51558;SDS011;61650;48.882;2.092;2022-09-03T01:10:29;6.50;;;6.00;;
51558;SDS011;61650;48.882;2.092;2022-09-03T01:13:16;7.43;;;6.73;;
51558;SDS011;61650;48.882;2.092;2022-09-03T01:16:08;6.63;;;6.03;;
51558;SDS011;61650;48.882;2.092;2022-09-03T01:21:24;6.50;;;6.00;;
51558;SDS011;61650;48.882;2.092;2022-09-03T01:27:19;6.60;;;6.00;;
51558;SDS011;61650;48.882;2.092;2022-09-03T01:30:09;6.53;;;5.93;;
51558;SDS011;61650;48.882;2.092;2022-09-03T01:35:13;6.97;;;6.37;;
51558;SDS011;61650;48.882;2.092;2022-09-03T01:38:03;6.27;;;5.77;;
51558;SDS011;61650;48.882;2.092;2022-09-03T01:46:40;6.10;;;5.60;;
51558;SDS011;61650;48.882;2.092;2022-09-03T01:52:04;5.87;;;5.37;;
51558;SDS011;61650;48.882;2.092;2022-09-03T01:57:53;6.07;;;5.57;;
51558;SDS011;61650;48.882;2.092;2022-09-03T02:00:24;6.20;;;5.70;;
51558;SDS011;61650;48.882;2.092;2022-09-03T02:02:52;5.63;;;5.17;;
51558;SDS011;61650;48.882;2.092;2022-09-03T02:05:22;6.23;;;5.73;;
51558;SDS011;61650;48.882;2.092;2022-09-03T02:07:53;6.00;;;5.50;;
51558;SDS011;61650;48.882;2.092;2022-09-03T02:10:22;6.07;;;5.07;;
51558;SDS011;61650;48.882;2.092;2022-09-03T02:12:55;5.83;;;5.33;;
51558;SDS011;61650;48.882;2.092;2022-09-03T02:15:31;5.87;;;5.37;;
51558;SDS011;61650;48.882;2.092;2022-09-03T02:18:01;6.33;;;5.73;;
51558;SDS011;61650;48.882;2.092;2022-09-03T02:20:29;6.13;;;5.53;;
51558;SDS011;61650;48.882;2.092;2022-09-03T02:22:56;5.90;;;5.30;;
51558;SDS011;61650;48.882;2.092;2022-09-03T02:25:23;5.30;;;4.80;;
51558;SDS011;61650;48.882;2.092;2022-09-03T02:27:54;5.80;;;5.30;;
51558;SDS011;61650;48.882;2.092;2022-09-03T02:30:21;5.57;;;4.97;;
51558;SDS011;61650;48.882;2.092;2022-09-03T02:32:47;5.27;;;4.77;;
51558;SDS011;61650;48.882;2.092;2022-09-03T02:35:12;5.07;;;4.67;;
51558;SDS011;61650;48.882;2.092;2022-09-03T02:37:38;5.37;;;4.97;;
51558;SDS011;61650;48.882;2.092;2022-09-03T02:40:06;5.30;;;4.90;;
51558;SDS011;61650;48.882;2.092;2022-09-03T02:42:34;5.90;;;5.23;;
51558;SDS011;61650;48.882;2.092;2022-09-03T02:45:12;5.37;;;4.90;;
51558;SDS011;61650;48.882;2.092;2022-09-03T02:47:52;5.73;;;4.93;;
51558;SDS011;61650;48.882;2.092;2022-09-03T02:50:20;5.30;;;4.90;;
51558;SDS011;61650;48.882;2.092;2022-09-03T02:52:46;5.00;;;4.50;;
51558;SDS011;61650;48.882;2.092;2022-09-03T02:55:11;4.93;;;4.43;;
51558;SDS011;61650;48.882;2.092;2022-09-03T02:57:37;5.40;;;5.00;;
51558;SDS011;61650;48.882;2.092;2022-09-03T03:00:03;5.73;;;5.20;;
51558;SDS011;61650;48.882;2.092;2022-09-03T03:02:29;4.83;;;4.50;;
51558;SDS011;61650;48.882;2.092;2022-09-03T03:04:54;5.30;;;4.90;;
51558;SDS011;61650;48.882;2.092;2022-09-03T03:07:20;5.63;;;4.73;;
51558;SDS011;61650;48.882;2.092;2022-09-03T03:09:46;6.50;;;4.67;;
51558;SDS011;61650;48.882;2.092;2022-09-03T03:12:11;5.23;;;4.83;;
51558;SDS011;61650;48.882;2.092;2022-09-03T03:14:37;4.80;;;4.40;;
51558;SDS011;61650;48.882;2.092;2022-09-03T03:17:03;5.03;;;4.63;;
51558;SDS011;61650;48.882;2.092;2022-09-03T03:19:28;5.20;;;4.70;;
51558;SDS011;61650;48.882;2.092;2022-09-03T03:21:54;5.07;;;4.67;;
51558;SDS011;61650;48.882;2.092;2022-09-03T03:24:20;5.40;;;4.90;;
51558;SDS011;61650;48.882;2.092;2022-09-03T03:26:45;5.20;;;4.80;;
51558;SDS011;61650;48.882;2.092;2022-09-03T03:29:14;5.43;;;5.03;;
51558;SDS011;61650;48.882;2.092;2022-09-03T03:31:43;5.40;;;4.90;;
51558;SDS011;61650;48.882;2.092;2022-09-03T03:34:09;6.03;;;5.43;;
51558;SDS011;61650;48.882;2.092;2022-09-03T03:36:34;5.63;;;5.13;;
51558;SDS011;61650;48.882;2.092;2022-09-03T03:39:00;5.00;;;4.60;;
51558;SDS011;61650;48.882;2.092;2022-09-03T03:41:28;5.03;;;4.57;;
51558;SDS011;61650;48.882;2.092;2022-09-03T03:43:59;5.30;;;4.80;;
51558;SDS011;61650;48.882;2.092;2022-09-03T03:46:38;5.63;;;4.93;;
51558;SDS011;61650;48.882;2.092;2022-09-03T03:49:05;5.13;;;4.63;;
51558;SDS011;61650;48.882;2.092;2022-09-03T03:51:32;4.60;;;4.30;;
51558;SDS011;61650;48.882;2.092;2022-09-03T03:53:59;5.00;;;4.60;;
51558;SDS011;61650;48.882;2.092;2022-09-03T03:56:25;5.20;;;4.70;;
51558;SDS011;61650;48.882;2.092;2022-09-03T03:58:51;5.10;;;4.73;;
51558;SDS011;61650;48.882;2.092;2022-09-03T04:01:19;5.33;;;4.87;;
51558;SDS011;61650;48.882;2.092;2022-09-03T04:03:46;4.93;;;4.50;;
51558;SDS011;61650;48.882;2.092;2022-09-03T04:06:13;5.33;;;4.93;;
51558;SDS011;61650;48.882;2.092;2022-09-03T04:08:41;5.73;;;5.23;;
51558;SDS011;61650;48.882;2.092;2022-09-03T04:11:09;5.40;;;5.00;;
51558;SDS011;61650;48.882;2.092;2022-09-03T04:13:37;5.17;;;4.77;;
51558;SDS011;61650;48.882;2.092;2022-09-03T04:16:05;7.43;;;4.87;;
51558;SDS011;61650;48.882;2.092;2022-09-03T04:18:42;5.53;;;5.10;;
51558;SDS011;61650;48.882;2.092;2022-09-03T04:21:09;5.23;;;4.73;;
51558;SDS011;61650;48.882;2.092;2022-09-03T04:23:40;5.40;;;4.90;;
51558;SDS011;61650;48.882;2.092;2022-09-03T04:26:08;6.37;;;5.33;;
51558;SDS011;61650;48.882;2.092;2022-09-03T04:28:35;6.17;;;5.10;;
51558;SDS011;61650;48.882;2.092;2022-09-03T04:31:05;6.37;;;5.10;;
51558;SDS011;61650;48.882;2.092;2022-09-03T04:33:33;5.30;;;4.90;;
51558;SDS011;61650;48.882;2.092;2022-09-03T04:38:37;5.37;;;4.93;;
51558;SDS011;61650;48.882;2.092;2022-09-03T04:41:04;5.73;;;5.23;;
51558;SDS011;61650;48.882;2.092;2022-09-03T04:43:31;5.60;;;5.10;;
51558;SDS011;61650;48.882;2.092;2022-09-03T04:45:58;5.83;;;5.37;;
51558;SDS011;61650;48.882;2.092;2022-09-03T04:48:25;6.97;;;6.27;;
51558;SDS011;61650;48.882;2.092;2022-09-03T04:50:52;6.63;;;6.03;;
51558;SDS011;61650;48.882;2.092;2022-09-03T04:53:19;6.97;;;6.37;;
51558;SDS011;61650;48.882;2.092;2022-09-03T04:55:46;5.80;;;5.30;;
51558;SDS011;61650;48.882;2.092;2022-09-03T04:58:12;5.60;;;5.10;;
51558;SDS011;61650;48.882;2.092;2022-09-03T05:00:37;6.07;;;5.50;;
51558;SDS011;61650;48.882;2.092;2022-09-03T05:03:03;6.40;;;5.90;;
51558;SDS011;61650;48.882;2.092;2022-09-03T05:05:30;6.37;;;5.83;;
51558;SDS011;61650;48.882;2.092;2022-09-03T05:07:57;6.57;;;6.07;;
51558;SDS011;61650;48.882;2.092;2022-09-03T05:10:25;6.37;;;5.40;;
51558;SDS011;61650;48.882;2.092;2022-09-03T05:13:02;6.60;;;6.00;;
51558;SDS011;61650;48.882;2.092;2022-09-03T05:15:29;6.13;;;5.50;;
51558;SDS011;61650;48.882;2.092;2022-09-03T05:18:00;6.83;;;6.13;;
51558;SDS011;61650;48.882;2.092;2022-09-03T05:20:27;6.37;;;5.77;;
51558;SDS011;61650;48.882;2.092;2022-09-03T05:22:55;5.90;;;5.30;;
51558;SDS011;61650;48.882;2.092;2022-09-03T05:25:21;6.63;;;5.93;;
51558;SDS011;61650;48.882;2.092;2022-09-03T05:27:47;6.43;;;5.83;;
51558;SDS011;61650;48.882;2.092;2022-09-03T05:30:13;6.30;;;5.70;;
51558;SDS011;61650;48.882;2.092;2022-09-03T05:32:39;6.73;;;5.70;;
51558;SDS011;61650;48.882;2.092;2022-09-03T05:35:06;7.23;;;6.53;;
51558;SDS011;61650;48.882;2.092;2022-09-03T05:37:32;6.37;;;5.87;;
51558;SDS011;61650;48.882;2.092;2022-09-03T05:39:58;6.60;;;6.00;;
51558;SDS011;61650;48.882;2.092;2022-09-03T05:42:23;6.40;;;5.90;;
51558;SDS011;61650;48.882;2.092;2022-09-03T05:44:51;6.57;;;6.00;;
51558;SDS011;61650;48.882;2.092;2022-09-03T05:47:16;7.10;;;5.73;;
51558;SDS011;61650;48.882;2.092;2022-09-03T05:49:42;6.47;;;5.87;;
51558;SDS011;61650;48.882;2.092;2022-09-03T05:52:08;6.67;;;5.97;;
51558;SDS011;61650;48.882;2.092;2022-09-03T05:54:33;7.40;;;6.70;;
51558;SDS011;61650;48.882;2.092;2022-09-03T05:56:59;7.23;;;6.53;;
51558;SDS011;61650;48.882;2.092;2022-09-03T05:59:25;7.33;;;6.63;;
51558;SDS011;61650;48.882;2.092;2022-09-03T06:01:51;8.17;;;7.37;;
51558;SDS011;61650;48.882;2.092;2022-09-03T06:04:17;8.03;;;7.23;;
51558;SDS011;61650;48.882;2.092;2022-09-03T06:06:43;7.50;;;6.80;;
51558;SDS011;61650;48.882;2.092;2022-09-03T06:09:14;7.93;;;5.50;;
51558;SDS011;61650;48.882;2.092;2022-09-03T06:11:42;7.57;;;6.87;;
51558;SDS011;61650;48.882;2.092;2022-09-03T06:14:09;8.10;;;6.90;;
51558;SDS011;61650;48.882;2.092;2022-09-03T06:16:41;8.93;;;6.97;;
51558;SDS011;61650;48.882;2.092;2022-09-03T06:19:08;7.20;;;6.50;;
51558;SDS011;61650;48.882;2.092;2022-09-03T06:21:38;7.00;;;6.37;;
51558;SDS011;61650;48.882;2.092;2022-09-03T06:24:06;7.30;;;6.60;;
51558;SDS011;61650;48.882;2.092;2022-09-03T06:26:34;7.60;;;6.90;;
51558;SDS011;61650;48.882;2.092;2022-09-03T06:29:00;11.40;;;7.87;;
51558;SDS011;61650;48.882;2.092;2022-09-03T06:31:26;8.53;;;6.87;;
51558;SDS011;61650;48.882;2.092;2022-09-03T06:33:52;9.50;;;6.90;;
51558;SDS011;61650;48.882;2.092;2022-09-03T06:36:19;7.87;;;7.07;;
51558;SDS011;61650;48.882;2.092;2022-09-03T06:38:45;7.93;;;6.70;;
51558;SDS011;61650;48.882;2.092;2022-09-03T06:43:51;7.57;;;6.73;;
51558;SDS011;61650;48.882;2.092;2022-09-03T06:46:19;7.63;;;6.93;;
51558;SDS011;61650;48.882;2.092;2022-09-03T06:48:46;7.20;;;6.50;;
51558;SDS011;61650;48.882;2.092;2022-09-03T06:51:13;8.83;;;7.97;;
51558;SDS011;61650;48.882;2.092;2022-09-03T06:53:41;8.50;;;7.60;;
51558;SDS011;61650;48.882;2.092;2022-09-03T06:56:09;8.10;;;7.30;;
51558;SDS011;61650;48.882;2.092;2022-09-03T06:58:40;6.43;;;5.83;;
51558;SDS011;61650;48.882;2.092;2022-09-03T07:01:18;8.30;;;7.50;;
51558;SDS011;61650;48.882;2.092;2022-09-03T07:03:46;7.40;;;6.80;;
51558;SDS011;61650;48.882;2.092;2022-09-03T07:06:17;7.30;;;6.60;;
51558;SDS011;61650;48.882;2.092;2022-09-03T07:08:44;8.03;;;7.33;;
51558;SDS011;61650;48.882;2.092;2022-09-03T07:11:11;6.90;;;6.27;;
51558;SDS011;61650;48.882;2.092;2022-09-03T07:13:42;6.80;;;6.20;;
51558;SDS011;61650;48.882;2.092;2022-09-03T07:16:10;7.17;;;6.47;;
51558;SDS011;61650;48.882;2.092;2022-09-03T07:18:38;7.90;;;6.90;;
51558;SDS011;61650;48.882;2.092;2022-09-03T07:21:06;8.07;;;6.43;;
51558;SDS011;61650;48.882;2.092;2022-09-03T07:23:34;6.50;;;5.90;;
51558;SDS011;61650;48.882;2.092;2022-09-03T07:26:11;7.10;;;6.07;;
51558;SDS011;61650;48.882;2.092;2022-09-03T07:28:39;6.87;;;6.17;;
51558;SDS011;61650;48.882;2.092;2022-09-03T07:31:07;6.70;;;6.07;;
51558;SDS011;61650;48.882;2.092;2022-09-03T07:33:38;6.90;;;6.20;;
51558;SDS011;61650;48.882;2.092;2022-09-03T07:36:05;5.80;;;5.20;;
51558;SDS011;61650;48.882;2.092;2022-09-03T07:38:38;6.43;;;5.80;;
51558;SDS011;61650;48.882;2.092;2022-09-03T07:41:04;6.70;;;5.93;;
51558;SDS011;61650;48.882;2.092;2022-09-03T07:43:33;5.43;;;4.93;;
51558;SDS011;61650;48.882;2.092;2022-09-03T07:46:00;5.77;;;5.27;;
51558;SDS011;61650;48.882;2.092;2022-09-03T07:48:26;5.60;;;5.10;;
51558;SDS011;61650;48.882;2.092;2022-09-03T07:50:56;5.63;;;5.13;;
51558;SDS011;61650;48.882;2.092;2022-09-03T07:53:28;5.37;;;4.97;;
51558;SDS011;61650;48.882;2.092;2022-09-03T07:56:00;5.70;;;5.10;;
51558;SDS011;61650;48.882;2.092;2022-09-03T07:58:29;5.27;;;4.77;;
51558;SDS011;61650;48.882;2.092;2022-09-03T08:00:57;4.67;;;4.23;;
51558;SDS011;61650;48.882;2.092;2022-09-03T08:03:23;4.47;;;4.17;;
51558;SDS011;61650;48.882;2.092;2022-09-03T08:05:49;4.27;;;3.97;;
51558;SDS011;61650;48.882;2.092;2022-09-03T08:08:14;5.03;;;4.53;;
51558;SDS011;61650;48.882;2.092;2022-09-03T08:10:41;4.50;;;4.10;;
51558;SDS011;61650;48.882;2.092;2022-09-03T08:13:07;4.47;;;4.07;;
51558;SDS011;61650;48.882;2.092;2022-09-03T08:15:34;4.30;;;3.90;;
51558;SDS011;61650;48.882;2.092;2022-09-03T08:18:01;4.77;;;4.00;;
51558;SDS011;61650;48.882;2.092;2022-09-03T08:20:27;4.17;;;3.87;;
51558;SDS011;61650;48.882;2.092;2022-09-03T08:23:00;4.70;;;4.30;;
51558;SDS011;61650;48.882;2.092;2022-09-03T08:25:26;5.00;;;3.90;;
51558;SDS011;61650;48.882;2.092;2022-09-03T08:27:52;4.53;;;3.97;;
51558;SDS011;61650;48.882;2.092;2022-09-03T08:30:18;5.40;;;4.00;;
51558;SDS011;61650;48.882;2.092;2022-09-03T08:32:45;4.43;;;3.50;;
51558;SDS011;61650;48.882;2.092;2022-09-03T08:35:11;5.37;;;3.83;;
51558;SDS011;61650;48.882;2.092;2022-09-03T08:37:36;4.23;;;3.63;;
51558;SDS011;61650;48.882;2.092;2022-09-03T08:40:03;4.07;;;3.77;;
51558;SDS011;61650;48.882;2.092;2022-09-03T08:45:08;4.30;;;3.53;;
51558;SDS011;61650;48.882;2.092;2022-09-03T08:47:42;5.17;;;4.70;;
51558;SDS011;61650;48.882;2.092;2022-09-03T08:52:47;3.60;;;3.30;;
51558;SDS011;61650;48.882;2.092;2022-09-03T08:55:19;4.10;;;2.90;;
51558;SDS011;61650;48.882;2.092;2022-09-03T08:58:05;3.60;;;2.93;;
51558;SDS011;61650;48.882;2.092;2022-09-03T09:00:40;4.13;;;3.60;;
51558;SDS011;61650;48.882;2.092;2022-09-03T09:06:07;2.87;;;2.67;;
51558;SDS011;61650;48.882;2.092;2022-09-03T09:08:47;3.07;;;2.77;;
51558;SDS011;61650;48.882;2.092;2022-09-03T09:17:13;6.10;;;3.00;;
51558;SDS011;61650;48.882;2.092;2022-09-03T09:22:25;2.63;;;2.40;;
51558;SDS011;61650;48.882;2.092;2022-09-03T09:25:03;3.97;;;2.37;;
51558;SDS011;61650;48.882;2.092;2022-09-03T09:27:39;3.13;;;2.60;;
51558;SDS011;61650;48.882;2.092;2022-09-03T09:30:15;2.57;;;2.00;;
51558;SDS011;61650;48.882;2.092;2022-09-03T09:32:43;2.83;;;2.60;;
51558;SDS011;61650;48.882;2.092;2022-09-03T09:35:11;2.57;;;2.23;;
51558;SDS011;61650;48.882;2.092;2022-09-03T09:40:21;3.00;;;2.80;;
51558;SDS011;61650;48.882;2.092;2022-09-03T09:42:49;2.50;;;2.30;;
51558;SDS011;61650;48.882;2.092;2022-09-03T09:45:22;6.83;;;3.00;;
51558;SDS011;61650;48.882;2.092;2022-09-03T09:47:48;2.73;;;2.53;;
51558;SDS011;61650;48.882;2.092;2022-09-03T09:50:18;2.97;;;2.77;;
51558;SDS011;61650;48.882;2.092;2022-09-03T09:52:46;3.50;;;3.20;;
51558;SDS011;61650;48.882;2.092;2022-09-03T09:55:16;3.67;;;3.37;;
51558;SDS011;61650;48.882;2.092;2022-09-03T09:57:43;3.97;;;3.40;;
51558;SDS011;61650;48.882;2.092;2022-09-03T10:00:13;4.17;;;2.97;;
51558;SDS011;61650;48.882;2.092;2022-09-03T10:02:50;4.33;;;2.97;;
51558;SDS011;61650;48.882;2.092;2022-09-03T10:05:25;3.70;;;3.40;;
51558;SDS011;61650;48.882;2.092;2022-09-03T10:08:01;4.10;;;2.80;;
51558;SDS011;61650;48.882;2.092;2022-09-03T10:10:29;4.33;;;3.17;;
51558;SDS011;61650;48.882;2.092;2022-09-03T10:23:58;3.33;;;2.90;;
51558;SDS011;61650;48.882;2.092;2022-09-03T10:26:43;3.27;;;2.53;;
51558;SDS011;61650;48.882;2.092;2022-09-03T10:29:10;3.80;;;3.00;;
51558;SDS011;61650;48.882;2.092;2022-09-03T10:43:03;6.37;;;3.53;;
51558;SDS011;61650;48.882;2.092;2022-09-03T10:48:43;3.50;;;3.20;;
51558;SDS011;61650;48.882;2.092;2022-09-03T10:59:59;3.33;;;3.13;;
51558;SDS011;61650;48.882;2.092;2022-09-03T11:05:15;3.57;;;3.10;;
51558;SDS011;61650;48.882;2.092;2022-09-03T11:07:51;3.27;;;2.97;;
51558;SDS011;61650;48.882;2.092;2022-09-03T11:10:41;3.30;;;3.10;;
51558;SDS011;61650;48.882;2.092;2022-09-03T11:13:16;3.03;;;2.80;;
51558;SDS011;61650;48.882;2.092;2022-09-03T11:15:57;3.50;;;2.43;;
51558;SDS011;61650;48.882;2.092;2022-09-03T11:18:35;3.07;;;2.87;;
51558;SDS011;61650;48.882;2.092;2022-09-03T11:21:11;4.20;;;2.90;;
51558;SDS011;61650;48.882;2.092;2022-09-03T11:23:41;3.50;;;3.20;;
51558;SDS011;61650;48.882;2.092;2022-09-03T11:26:12;3.50;;;2.60;;
51558;SDS011;61650;48.882;2.092;2022-09-03T11:40:04;3.00;;;2.80;;
51558;SDS011;61650;48.882;2.092;2022-09-03T11:42:37;2.63;;;2.43;;
51558;SDS011;61650;48.882;2.092;2022-09-03T11:45:20;2.40;;;2.23;;
51558;SDS011;61650;48.882;2.092;2022-09-03T11:47:48;3.00;;;2.80;;
51558;SDS011;61650;48.882;2.092;2022-09-03T11:50:28;2.80;;;2.47;;
51558;SDS011;61650;48.882;2.092;2022-09-03T11:58:34;2.27;;;2.10;;
51558;SDS011;61650;48.882;2.092;2022-09-03T12:01:15;2.37;;;2.17;;
51558;SDS011;61650;48.882;2.092;2022-09-03T12:03:55;2.00;;;1.90;;
51558;SDS011;61650;48.882;2.092;2022-09-03T12:06:47;2.37;;;2.17;;
51558;SDS011;61650;48.882;2.092;2022-09-03T12:09:39;2.70;;;2.50;;
51558;SDS011;61650;48.882;2.092;2022-09-03T12:18:22;1.93;;;1.83;;
51558;SDS011;61650;48.882;2.092;2022-09-03T12:23:25;2.00;;;1.80;;
51558;SDS011;61650;48.882;2.092;2022-09-03T12:26:08;2.20;;;2.00;;
51558;SDS011;61650;48.882;2.092;2022-09-03T12:28:39;1.70;;;1.60;;
51558;SDS011;61650;48.882;2.092;2022-09-03T12:31:22;1.77;;;1.67;;
51558;SDS011;61650;48.882;2.092;2022-09-03T12:34:09;1.40;;;1.30;;
51558;SDS011;61650;48.882;2.092;2022-09-03T12:36:37;3.10;;;1.33;;
51558;SDS011;61650;48.882;2.092;2022-09-03T12:39:11;1.43;;;1.33;;
51558;SDS011;61650;48.882;2.092;2022-09-03T12:41:37;1.50;;;1.40;;
51558;SDS011;61650;48.882;2.092;2022-09-03T12:44:03;1.63;;;1.53;;
51558;SDS011;61650;48.882;2.092;2022-09-03T12:46:30;3.00;;;1.73;;
51558;SDS011;61650;48.882;2.092;2022-09-03T12:48:58;3.50;;;1.30;;
51558;SDS011;61650;48.882;2.092;2022-09-03T12:51:39;1.90;;;1.40;;
51558;SDS011;61650;48.882;2.092;2022-09-03T12:54:07;1.50;;;1.40;;
51558;SDS011;61650;48.882;2.092;2022-09-03T12:56:40;1.80;;;1.60;;
51558;SDS011;61650;48.882;2.092;2022-09-03T12:59:10;1.60;;;1.50;;
51558;SDS011;61650;48.882;2.092;2022-09-03T13:01:48;1.87;;;1.77;;
51558;SDS011;61650;48.882;2.092;2022-09-03T13:04:38;1.77;;;1.50;;
51558;SDS011;61650;48.882;2.092;2022-09-03T13:07:10;1.70;;;1.00;;
51558;SDS011;61650;48.882;2.092;2022-09-03T13:09:38;1.80;;;1.10;;
51558;SDS011;61650;48.882;2.092;2022-09-03T13:12:06;1.10;;;1.00;;
51558;SDS011;61650;48.882;2.092;2022-09-03T13:14:45;1.90;;;1.07;;
51558;SDS011;61650;48.882;2.092;2022-09-03T13:19:49;1.93;;;1.00;;
51558;SDS011;61650;48.882;2.092;2022-09-03T13:33:20;1.20;;;0.90;;
51558;SDS011;61650;48.882;2.092;2022-09-03T13:38:34;1.77;;;1.20;;
51558;SDS011;61650;48.882;2.092;2022-09-03T13:52:19;0.90;;;0.80;;
51558;SDS011;61650;48.882;2.092;2022-09-03T13:54:56;1.27;;;1.00;;
51558;SDS011;61650;48.882;2.092;2022-09-03T14:00:22;2.13;;;1.10;;
51558;SDS011;61650;48.882;2.092;2022-09-03T14:03:07;1.87;;;1.07;;
51558;SDS011;61650;48.882;2.092;2022-09-03T14:05:44;2.43;;;1.20;;
51558;SDS011;61650;48.882;2.092;2022-09-03T14:08:22;1.20;;;1.07;;
51558;SDS011;61650;48.882;2.092;2022-09-03T14:13:27;1.30;;;1.20;;
51558;SDS011;61650;48.882;2.092;2022-09-03T14:19:47;1.70;;;1.20;;
51558;SDS011;61650;48.882;2.092;2022-09-03T14:25:16;3.20;;;1.40;;
51558;SDS011;61650;48.882;2.092;2022-09-03T14:27:43;1.50;;;1.40;;
51558;SDS011;61650;48.882;2.092;2022-09-03T14:35:30;1.93;;;1.40;;
51558;SDS011;61650;48.882;2.092;2022-09-03T14:38:20;1.73;;;1.63;;
51558;SDS011;61650;48.882;2.092;2022-09-03T14:43:40;2.50;;;1.47;;
51558;SDS011;61650;48.882;2.092;2022-09-03T14:46:45;2.13;;;1.60;;
51558;SDS011;61650;48.882;2.092;2022-09-03T15:00:36;2.10;;;2.00;;
51558;SDS011;61650;48.882;2.092;2022-09-03T15:06:13;1.70;;;1.60;;
51558;SDS011;61650;48.882;2.092;2022-09-03T15:12:32;1.80;;;1.70;;
51558;SDS011;61650;48.882;2.092;2022-09-03T15:15:07;1.90;;;1.70;;
51558;SDS011;61650;48.882;2.092;2022-09-03T15:17:52;3.20;;;1.90;;
51558;SDS011;61650;48.882;2.092;2022-09-03T15:23:13;2.33;;;2.13;;
51558;SDS011;61650;48.882;2.092;2022-09-03T15:25:57;1.80;;;1.70;;
51558;SDS011;61650;48.882;2.092;2022-09-03T15:31:09;1.90;;;1.80;;
51558;SDS011;61650;48.882;2.092;2022-09-03T15:36:23;2.47;;;2.20;;
51558;SDS011;61650;48.882;2.092;2022-09-03T15:39:16;2.30;;;2.00;;
51558;SDS011;61650;48.882;2.092;2022-09-03T15:41:49;5.07;;;2.13;;
51558;SDS011;61650;48.882;2.092;2022-09-03T15:44:20;2.47;;;2.23;;
51558;SDS011;61650;48.882;2.092;2022-09-03T15:52:23;2.30;;;2.20;;
51558;SDS011;61650;48.882;2.092;2022-09-03T16:00:49;2.73;;;2.50;;
51558;SDS011;61650;48.882;2.092;2022-09-03T16:03:16;2.97;;;2.77;;
51558;SDS011;61650;48.882;2.092;2022-09-03T16:06:03;2.43;;;2.23;;
51558;SDS011;61650;48.882;2.092;2022-09-03T16:08:56;3.00;;;2.67;;
51558;SDS011;61650;48.882;2.092;2022-09-03T16:15:13;2.87;;;2.67;;
51558;SDS011;61650;48.882;2.092;2022-09-03T16:17:32;2.40;;;2.20;;
51558;SDS011;61650;48.882;2.092;2022-09-03T16:20:15;2.50;;;2.30;;
51558;SDS011;61650;48.882;2.092;2022-09-03T16:23:48;2.70;;;2.50;;
51558;SDS011;61650;48.882;2.092;2022-09-03T16:25:51;2.43;;;2.23;;
51558;SDS011;61650;48.882;2.092;2022-09-03T16:28:28;3.30;;;3.00;;
51558;SDS011;61650;48.882;2.092;2022-09-03T16:33:31;4.30;;;2.80;;
51558;SDS011;61650;48.882;2.092;2022-09-03T16:39:01;2.90;;;2.43;;
51558;SDS011;61650;48.882;2.092;2022-09-03T16:58:19;3.60;;;2.50;;
51558;SDS011;61650;48.882;2.092;2022-09-03T17:01:02;2.83;;;2.63;;
51558;SDS011;61650;48.882;2.092;2022-09-03T17:09:17;4.57;;;3.77;;
51558;SDS011;61650;48.882;2.092;2022-09-03T17:14:49;3.30;;;3.10;;
51558;SDS011;61650;48.882;2.092;2022-09-03T17:26:10;3.63;;;3.33;;
51558;SDS011;61650;48.882;2.092;2022-09-03T17:31:48;3.47;;;3.20;;
51558;SDS011;61650;48.882;2.092;2022-09-03T17:34:46;4.33;;;3.43;;
51558;SDS011;61650;48.882;2.092;2022-09-03T17:37:24;4.40;;;4.00;;
51558;SDS011;61650;48.882;2.092;2022-09-03T17:40:21;4.47;;;4.07;;
51558;SDS011;61650;48.882;2.092;2022-09-03T17:46:05;4.30;;;3.83;;
51558;SDS011;61650;48.882;2.092;2022-09-03T17:48:51;3.77;;;3.47;;
51558;SDS011;61650;48.882;2.092;2022-09-03T17:51:32;4.17;;;3.77;;
51558;SDS011;61650;48.882;2.092;2022-09-03T17:54:19;3.80;;;3.40;;
51558;SDS011;61650;48.882;2.092;2022-09-03T17:57:30;4.17;;;3.77;;
51558;SDS011;61650;48.882;2.092;2022-09-03T18:05:21;3.43;;;3.10;;
51558;SDS011;61650;48.882;2.092;2022-09-03T18:13:45;3.87;;;3.57;;
51558;SDS011;61650;48.882;2.092;2022-09-03T18:16:45;4.40;;;4.00;;
51558;SDS011;61650;48.882;2.092;2022-09-03T18:21:53;4.50;;;4.10;;
51558;SDS011;61650;48.882;2.092;2022-09-03T18:24:46;4.73;;;4.33;;
51558;SDS011;61650;48.882;2.092;2022-09-03T18:27:46;5.47;;;4.83;;
51558;SDS011;61650;48.882;2.092;2022-09-03T18:30:36;5.03;;;4.63;;
51558;SDS011;61650;48.882;2.092;2022-09-03T18:33:23;4.63;;;4.10;;
51558;SDS011;61650;48.882;2.092;2022-09-03T18:36:10;4.87;;;4.40;;
51558;SDS011;61650;48.882;2.092;2022-09-03T18:39:06;5.87;;;4.70;;
51558;SDS011;61650;48.882;2.092;2022-09-03T18:42:20;5.40;;;4.87;;
51558;SDS011;61650;48.882;2.092;2022-09-03T18:45:42;6.90;;;6.30;;
51558;SDS011;61650;48.882;2.092;2022-09-03T18:48:32;8.87;;;6.90;;
51558;SDS011;61650;48.882;2.092;2022-09-03T19:08:14;9.20;;;8.20;;
51558;SDS011;61650;48.882;2.092;2022-09-03T19:14:16;8.77;;;7.97;;
51558;SDS011;61650;48.882;2.092;2022-09-03T19:17:29;8.80;;;7.97;;
51558;SDS011;61650;48.882;2.092;2022-09-03T19:20:26;10.77;;;8.20;;
51558;SDS011;61650;48.882;2.092;2022-09-03T19:23:13;7.67;;;6.93;;
51558;SDS011;61650;48.882;2.092;2022-09-03T19:26:01;8.00;;;7.23;;
51558;SDS011;61650;48.882;2.092;2022-09-03T19:29:10;8.00;;;7.20;;
51558;SDS011;61650;48.882;2.092;2022-09-03T19:32:09;8.80;;;8.00;;
51558;SDS011;61650;48.882;2.092;2022-09-03T19:37:49;8.70;;;7.90;;
51558;SDS011;61650;48.882;2.092;2022-09-03T19:41:03;8.20;;;7.50;;
51558;SDS011;61650;48.882;2.092;2022-09-03T19:43:55;8.60;;;7.67;;
51558;SDS011;61650;48.882;2.092;2022-09-03T19:47:01;8.47;;;7.60;;
51558;SDS011;61650;48.882;2.092;2022-09-03T19:52:52;8.07;;;7.30;;
51558;SDS011;61650;48.882;2.092;2022-09-03T19:55:42;8.03;;;7.33;;
51558;SDS011;61650;48.882;2.092;2022-09-03T19:58:29;8.00;;;6.77;;
51558;SDS011;61650;48.882;2.092;2022-09-03T20:01:16;7.50;;;6.90;;
51558;SDS011;61650;48.882;2.092;2022-09-03T20:04:05;7.63;;;6.93;;
51558;SDS011;61650;48.882;2.092;2022-09-03T20:06:57;6.63;;;6.03;;
51558;SDS011;61650;48.882;2.092;2022-09-03T20:09:44;7.60;;;6.90;;
51558;SDS011;61650;48.882;2.092;2022-09-03T20:12:32;7.10;;;6.50;;
51558;SDS011;61650;48.882;2.092;2022-09-03T20:15:02;7.00;;;6.30;;
51558;SDS011;61650;48.882;2.092;2022-09-03T20:17:34;7.60;;;6.93;;
51558;SDS011;61650;48.882;2.092;2022-09-03T20:20:14;7.93;;;7.13;;
51558;SDS011;61650;48.882;2.092;2022-09-03T20:22:55;7.93;;;7.27;;
51558;SDS011;61650;48.882;2.092;2022-09-03T20:33:29;8.57;;;7.77;;
51558;SDS011;61650;48.882;2.092;2022-09-03T20:50:20;8.93;;;8.20;;
51558;SDS011;61650;48.882;2.092;2022-09-03T20:55:32;7.80;;;7.10;;
51558;SDS011;61650;48.882;2.092;2022-09-03T21:09:18;8.27;;;7.57;;
51558;SDS011;61650;48.882;2.092;2022-09-03T21:15:00;8.20;;;7.50;;